createdAt,value
2018-07-21T00:00:16.279Z,25.12
2018-07-21T00:02:44.421Z,25.12
2018-07-21T00:05:12.511Z,25.09
2018-07-21T00:07:40.487Z,25.10
2018-07-21T00:10:08.748Z,25.06
2018-07-21T00:12:36.690Z,25.04
2018-07-21T00:15:04.890Z,25.06
2018-07-21T00:17:33.339Z,25.03
2018-07-21T00:20:01.290Z,25.02
2018-07-21T00:22:29.346Z,25.00
2018-07-21T00:24:57.484Z,25.00
2018-07-21T00:27:25.568Z,24.95
2018-07-21T00:29:53.695Z,24.97
2018-07-21T00:32:21.597Z,24.96
2018-07-21T00:34:49.570Z,24.97
2018-07-21T00:37:17.891Z,24.95
2018-07-21T00:39:46.970Z,24.94
2018-07-21T00:42:14.985Z,24.90
2018-07-21T00:44:43.127Z,24.81
2018-07-21T00:47:11.554Z,24.85
2018-07-21T00:49:39.477Z,24.78
2018-07-21T00:52:07.430Z,24.85
2018-07-21T00:54:35.557Z,24.87
2018-07-21T00:57:03.522Z,24.88
2018-07-21T00:59:31.594Z,24.95
2018-07-21T01:01:59.533Z,24.93
2018-07-21T01:04:27.634Z,24.97
2018-07-21T01:06:55.684Z,24.96
2018-07-21T01:09:23.936Z,24.91
2018-07-21T01:11:51.946Z,24.94
2018-07-21T01:14:20.108Z,24.92
2018-07-21T01:16:48.128Z,24.92
2018-07-21T01:19:16.320Z,24.94
2018-07-21T01:21:44.257Z,24.94
2018-07-21T01:24:12.365Z,24.91
2018-07-21T01:26:40.460Z,24.92
2018-07-21T01:29:08.557Z,24.91
2018-07-21T01:31:36.710Z,24.89
2018-07-21T01:34:09.319Z,24.87
2018-07-21T01:36:37.877Z,24.85
2018-07-21T01:39:08.543Z,24.83
2018-07-21T01:41:36.572Z,24.81
2018-07-21T01:44:04.743Z,24.81
2018-07-21T01:46:32.710Z,24.80
2018-07-21T01:49:00.683Z,24.80
2018-07-21T01:51:32.645Z,24.79
2018-07-21T01:54:01.731Z,24.78
2018-07-21T01:56:29.735Z,24.77
2018-07-21T01:58:57.927Z,24.75
2018-07-21T02:01:25.889Z,24.75
2018-07-21T02:03:54.015Z,24.75
2018-07-21T02:06:22.146Z,24.76
2018-07-21T02:08:50.114Z,24.78
2018-07-21T02:11:18.144Z,24.79
2018-07-21T02:13:46.263Z,24.79
2018-07-21T02:16:14.351Z,24.79
2018-07-21T02:18:42.324Z,24.82
2018-07-21T02:21:10.655Z,24.81
2018-07-21T02:23:38.662Z,24.79
2018-07-21T02:26:06.651Z,24.76
2018-07-21T02:28:34.867Z,24.70
2018-07-21T02:31:02.887Z,24.68
2018-07-21T02:33:31.013Z,24.65
2018-07-21T02:35:59.141Z,24.61
2018-07-21T02:38:27.110Z,24.56
2018-07-21T02:40:55.060Z,24.54
2018-07-21T02:43:23.190Z,24.55
2018-07-21T02:45:51.105Z,24.56
2018-07-21T02:48:19.153Z,24.58
2018-07-21T02:50:47.727Z,24.65
2018-07-21T02:53:15.680Z,24.67
2018-07-21T02:55:43.457Z,24.69
2018-07-21T02:58:11.847Z,24.70
2018-07-21T03:00:39.858Z,24.72
2018-07-21T03:03:07.759Z,24.74
2018-07-21T03:05:35.729Z,24.75
2018-07-21T03:08:03.800Z,24.75
2018-07-21T03:10:31.891Z,24.76
2018-07-21T03:13:00.092Z,24.75
2018-07-21T03:15:28.125Z,24.74
2018-07-21T03:17:56.207Z,24.76
2018-07-21T03:20:24.567Z,24.75
2018-07-21T03:22:52.613Z,24.73
2018-07-21T03:25:20.645Z,24.71
2018-07-21T03:27:49.003Z,24.71
2018-07-21T03:30:16.996Z,24.69
2018-07-21T03:32:44.984Z,24.67
2018-07-21T03:35:12.931Z,24.66
2018-07-21T03:37:41.013Z,24.64
2018-07-21T03:40:09.002Z,24.60
2018-07-21T03:42:37.010Z,24.55
2018-07-21T03:45:04.986Z,24.57
2018-07-21T03:47:33.040Z,24.65
2018-07-21T03:50:01.389Z,24.73
2018-07-21T03:52:29.533Z,24.78
2018-07-21T03:54:57.356Z,24.86
2018-07-21T03:57:25.644Z,24.89
2018-07-21T03:59:54.558Z,24.87
2018-07-21T04:02:22.457Z,24.81
2018-07-21T04:04:50.585Z,24.75
2018-07-21T04:07:18.533Z,24.86
2018-07-21T04:09:46.473Z,24.87
2018-07-21T04:12:15.034Z,24.87
2018-07-21T04:14:43.010Z,24.93
2018-07-21T04:17:16.904Z,25.01
2018-07-21T04:19:44.896Z,25.22
2018-07-21T04:22:13.069Z,25.58
2018-07-21T04:24:41.216Z,25.86
2018-07-21T04:27:09.395Z,26.17
2018-07-21T04:29:37.338Z,26.45
2018-07-21T04:32:05.409Z,26.71
2018-07-21T04:34:33.340Z,26.86
2018-07-21T04:37:01.449Z,26.99
2018-07-21T04:39:29.888Z,27.24
2018-07-21T04:41:57.971Z,27.22
2018-07-21T04:44:26.053Z,27.08
2018-07-21T04:46:54.338Z,27.15
2018-07-21T04:49:22.361Z,27.41
2018-07-21T04:51:50.413Z,27.72
2018-07-21T04:54:18.550Z,27.98
2018-07-21T04:56:46.580Z,28.16
2018-07-21T04:59:14.647Z,28.45
2018-07-21T05:01:42.787Z,28.54
2018-07-21T05:04:10.841Z,28.66
2018-07-21T05:06:38.804Z,28.14
2018-07-21T05:09:09.374Z,27.84
2018-07-21T05:11:37.850Z,27.94
2018-07-21T05:14:06.450Z,27.99
2018-07-21T05:16:34.486Z,27.92
2018-07-21T05:19:02.601Z,27.98
2018-07-21T05:21:30.478Z,27.76
2018-07-21T05:24:16.860Z,27.40
2018-07-21T05:26:45.041Z,27.41
2018-07-21T05:29:13.431Z,27.40
2018-07-21T05:31:41.392Z,27.69
2018-07-21T05:34:09.491Z,27.60
2018-07-21T05:36:37.540Z,27.68
2018-07-21T05:39:07.377Z,27.83
2018-07-21T05:41:35.350Z,27.89
2018-07-21T05:44:03.538Z,27.64
2018-07-21T05:46:31.407Z,27.68
2018-07-21T05:49:00.423Z,27.77
2018-07-21T05:51:28.475Z,28.33
2018-07-21T05:53:56.566Z,28.77
2018-07-21T05:56:24.593Z,29.33
2018-07-21T05:58:52.878Z,29.71
2018-07-21T06:01:20.937Z,29.62
2018-07-21T06:03:48.950Z,29.54
2018-07-21T06:06:17.070Z,29.14
2018-07-21T06:08:45.313Z,28.69
2018-07-21T06:11:13.194Z,28.40
2018-07-21T06:13:48.878Z,28.40
2018-07-21T06:16:16.989Z,28.34
2018-07-21T06:18:45.050Z,28.20
2018-07-21T06:21:13.515Z,27.92
2018-07-21T06:23:41.522Z,27.93
2018-07-21T06:26:09.668Z,27.98
2018-07-21T06:28:38.040Z,27.94
2018-07-21T06:31:06.265Z,27.90
2018-07-21T06:33:34.262Z,28.10
2018-07-21T06:36:02.375Z,28.36
2018-07-21T06:38:30.486Z,28.55
2018-07-21T06:40:58.310Z,28.42
2018-07-21T06:43:26.324Z,28.53
2018-07-21T06:45:55.260Z,28.58
2018-07-21T06:48:23.247Z,28.49
2018-07-21T06:50:51.423Z,28.29
2018-07-21T06:53:19.443Z,28.33
2018-07-21T06:55:47.408Z,28.37
2018-07-21T06:58:15.517Z,28.29
2018-07-21T07:00:43.672Z,28.41
2018-07-21T07:03:11.674Z,28.60
2018-07-21T07:05:40.023Z,28.77
2018-07-21T07:08:07.962Z,28.79
2018-07-21T07:10:35.912Z,28.87
2018-07-21T07:13:04.401Z,28.93
2018-07-21T07:15:32.480Z,29.09
2018-07-21T07:18:00.558Z,28.98
2018-07-21T07:20:29.231Z,28.74
2018-07-21T07:22:57.333Z,28.81
2018-07-21T07:25:25.267Z,28.85
2018-07-21T07:27:53.316Z,28.93
2018-07-21T07:30:21.213Z,28.88
2018-07-21T07:32:49.182Z,28.90
2018-07-21T07:35:17.147Z,28.92
2018-07-21T07:39:14.635Z,28.99
2018-07-21T07:41:42.578Z,29.08
2018-07-21T07:44:10.651Z,29.18
2018-07-21T07:46:38.687Z,29.21
2018-07-21T07:49:07.221Z,29.29
2018-07-21T07:51:35.213Z,29.36
2018-07-21T07:54:03.198Z,29.37
2018-07-21T07:56:31.321Z,29.51
2018-07-21T07:58:59.661Z,29.53
2018-07-21T08:01:27.803Z,29.58
2018-07-21T08:03:56.117Z,29.67
2018-07-21T08:06:24.104Z,29.70
2018-07-21T08:08:52.093Z,29.63
2018-07-21T08:11:20.249Z,29.74
2018-07-21T08:13:48.241Z,29.71
2018-07-21T08:16:16.234Z,29.93
2018-07-21T08:18:44.498Z,30.08
2018-07-21T08:21:12.853Z,30.03
2018-07-21T08:23:40.730Z,30.13
2018-07-21T08:26:08.761Z,30.23
2018-07-21T08:28:36.645Z,30.14
2018-07-21T08:31:04.511Z,30.19
2018-07-21T08:33:32.665Z,30.35
2018-07-21T08:36:01.764Z,30.55
2018-07-21T08:38:29.723Z,30.68
2018-07-21T08:40:58.128Z,30.70
2018-07-21T08:43:26.158Z,30.62
2018-07-21T08:45:54.170Z,30.78
2018-07-21T08:48:22.161Z,30.83
2018-07-21T08:50:50.106Z,30.73
2018-07-21T08:53:18.074Z,30.63
2018-07-21T08:55:46.434Z,30.61
2018-07-21T08:58:14.399Z,30.50
2018-07-21T09:00:42.495Z,30.72
2018-07-21T09:03:10.881Z,30.82
2018-07-21T09:05:39.069Z,30.72
2018-07-21T09:08:07.150Z,30.65
2018-07-21T09:10:35.443Z,30.61
2018-07-21T09:13:03.557Z,30.61
2018-07-21T09:15:31.421Z,30.49
2018-07-21T09:17:59.713Z,30.58
2018-07-21T09:20:27.790Z,30.65
2018-07-21T09:22:55.848Z,30.71
2018-07-21T09:25:24.386Z,30.64
2018-07-21T09:27:52.420Z,30.65
2018-07-21T09:30:20.572Z,30.77
2018-07-21T09:32:48.874Z,30.89
2018-07-21T09:35:16.767Z,30.97
2018-07-21T09:37:45.674Z,31.15
2018-07-21T09:40:13.674Z,31.24
2018-07-21T09:42:41.608Z,31.44
2018-07-21T09:45:09.491Z,31.42
2018-07-21T09:47:37.694Z,31.45
2018-07-21T09:50:06.699Z,31.57
2018-07-21T09:52:34.706Z,31.63
2018-07-21T09:55:03.034Z,31.74
2018-07-21T09:57:31.018Z,31.64
2018-07-21T09:59:58.935Z,31.61
2018-07-21T10:02:27.242Z,31.36
2018-07-21T10:04:55.474Z,31.17
2018-07-21T10:07:23.593Z,31.31
2018-07-21T10:09:51.891Z,31.31
2018-07-21T10:12:20.143Z,31.52
2018-07-21T10:14:48.206Z,31.57
2018-07-21T10:17:16.439Z,31.68
2018-07-21T10:19:44.563Z,31.72
2018-07-21T10:22:12.584Z,31.84
2018-07-21T10:24:46.303Z,31.86
2018-07-21T10:27:15.262Z,31.87
2018-07-21T10:29:43.275Z,31.90
2018-07-21T10:32:11.909Z,31.88
2018-07-21T10:34:39.931Z,32.03
2018-07-21T10:37:07.925Z,32.03
2018-07-21T10:39:36.108Z,32.04
2018-07-21T10:42:04.071Z,32.17
2018-07-21T10:46:01.454Z,32.12
2018-07-21T10:48:29.466Z,32.11
2018-07-21T10:50:57.385Z,32.16
2018-07-21T10:53:25.511Z,32.21
2018-07-21T10:55:53.461Z,32.23
2018-07-21T10:58:21.342Z,32.32
2018-07-21T11:00:49.377Z,32.33
2018-07-21T11:03:17.280Z,32.28
2018-07-21T11:05:45.153Z,32.21
2018-07-21T11:08:14.152Z,32.18
2018-07-21T11:10:42.154Z,32.14
2018-07-21T11:13:10.241Z,32.25
2018-07-21T11:15:38.258Z,32.36
2018-07-21T11:18:06.155Z,32.42
2018-07-21T11:20:34.275Z,32.47
2018-07-21T11:23:02.289Z,32.57
2018-07-21T11:25:30.360Z,32.58
2018-07-21T11:27:58.426Z,32.61
2018-07-21T11:30:26.640Z,32.49
2018-07-21T11:32:54.557Z,32.37
2018-07-21T11:35:22.731Z,32.50
2018-07-21T11:37:50.916Z,32.54
2018-07-21T11:40:18.893Z,32.48
2018-07-21T11:42:46.824Z,32.58
2018-07-21T11:45:15.059Z,32.60
2018-07-21T11:47:42.984Z,32.65
2018-07-21T11:50:11.131Z,32.67
2018-07-21T11:52:39.356Z,32.84
2018-07-21T11:55:07.671Z,32.90
2018-07-21T11:57:35.583Z,33.05
2018-07-21T12:00:03.717Z,33.16
2018-07-21T12:02:31.826Z,33.27
2018-07-21T12:04:59.906Z,33.32
2018-07-21T12:07:28.421Z,33.22
2018-07-21T12:09:56.509Z,33.07
2018-07-21T12:12:24.422Z,33.06
2018-07-21T12:14:52.343Z,33.09
2018-07-21T12:17:20.431Z,33.02
2018-07-21T12:19:48.440Z,33.09
2018-07-21T12:22:16.810Z,33.10
2018-07-21T12:24:44.726Z,33.01
2018-07-21T12:27:12.647Z,33.05
2018-07-21T12:29:40.891Z,33.04
2018-07-21T12:32:08.834Z,33.07
2018-07-21T12:34:36.818Z,33.20
2018-07-21T12:37:05.042Z,33.15
2018-07-21T12:39:33.091Z,33.20
2018-07-21T12:42:01.019Z,33.15
2018-07-21T12:44:29.163Z,33.17
2018-07-21T12:46:57.239Z,33.26
2018-07-21T12:49:25.463Z,33.26
2018-07-21T12:51:53.578Z,33.33
2018-07-21T12:54:21.716Z,33.32
2018-07-21T12:56:49.744Z,33.42
2018-07-21T12:59:17.714Z,33.35
2018-07-21T13:01:45.677Z,33.42
2018-07-21T13:04:13.666Z,33.33
2018-07-21T13:06:41.603Z,33.15
2018-07-21T13:09:11.005Z,33.32
2018-07-21T13:11:39.194Z,33.44
2018-07-21T13:14:07.343Z,33.41
2018-07-21T13:16:35.699Z,33.45
2018-07-21T13:19:03.893Z,33.34
2018-07-21T13:21:32.018Z,33.25
2018-07-21T13:30:44.445Z,33.23
2018-07-21T13:33:12.442Z,33.39
2018-07-21T13:35:40.514Z,33.41
2018-07-21T13:38:39.667Z,33.41
2018-07-21T13:41:07.719Z,33.48
2018-07-21T13:43:35.672Z,33.32
2018-07-21T13:46:04.003Z,33.36
2018-07-21T13:48:32.126Z,33.29
2018-07-21T13:51:00.080Z,33.18
2018-07-21T13:53:28.260Z,33.00
2018-07-21T13:55:56.214Z,32.94
2018-07-21T13:58:24.354Z,32.91
2018-07-21T14:00:52.804Z,33.12
2018-07-21T14:03:20.767Z,33.17
2018-07-21T14:05:48.735Z,33.09
2018-07-21T14:08:16.959Z,33.22
2018-07-21T14:10:45.070Z,33.23
2018-07-21T14:13:13.023Z,33.22
2018-07-21T14:15:41.011Z,33.27
2018-07-21T14:18:09.120Z,33.31
2018-07-21T14:20:37.181Z,33.21
2018-07-21T14:23:05.202Z,33.23
2018-07-21T14:25:33.254Z,33.31
2018-07-21T14:28:01.326Z,33.17
2018-07-21T14:30:29.543Z,33.28
2018-07-21T14:32:57.603Z,33.38
2018-07-21T14:35:25.484Z,33.33
2018-07-21T14:37:53.837Z,33.25
2018-07-21T14:40:21.903Z,33.23
2018-07-21T14:42:49.897Z,33.28
2018-07-21T14:45:18.446Z,33.35
2018-07-21T14:47:46.407Z,33.22
2018-07-21T14:50:14.321Z,33.22
2018-07-21T14:52:42.530Z,33.25
2018-07-21T14:55:10.663Z,33.27
2018-07-21T14:57:38.761Z,33.13
2018-07-21T15:00:07.126Z,33.14
2018-07-21T15:02:35.125Z,33.19
2018-07-21T15:05:03.296Z,33.20
2018-07-21T15:07:31.694Z,33.17
2018-07-21T15:09:59.701Z,33.23
2018-07-21T15:12:27.770Z,33.22
2018-07-21T15:14:56.293Z,33.12
2018-07-21T15:17:24.525Z,33.10
2018-07-21T15:19:52.577Z,33.07
2018-07-21T15:22:20.809Z,33.10
2018-07-21T15:24:48.757Z,33.18
2018-07-21T15:27:16.926Z,33.16
2018-07-21T15:29:44.970Z,33.17
2018-07-21T15:32:12.955Z,33.09
2018-07-21T15:34:40.997Z,33.14
2018-07-21T15:37:09.874Z,33.10
2018-07-21T15:39:38.020Z,33.07
2018-07-21T15:42:06.133Z,33.09
2018-07-21T15:44:34.259Z,33.12
2018-07-21T15:47:02.048Z,33.17
2018-07-21T15:49:29.998Z,33.03
2018-07-21T15:51:58.108Z,33.03
2018-07-21T15:54:26.214Z,33.09
2018-07-21T15:56:54.141Z,33.07
2018-07-21T15:59:22.186Z,32.95
2018-07-21T16:01:50.227Z,32.92
2018-07-21T16:04:18.319Z,32.95
2018-07-21T16:06:46.272Z,32.98
2018-07-21T16:09:14.163Z,32.89
2018-07-21T16:11:42.104Z,32.87
2018-07-21T16:14:10.266Z,32.89
2018-07-21T16:16:38.178Z,32.93
2018-07-21T16:19:06.261Z,32.90
2018-07-21T16:21:34.398Z,32.93
2018-07-21T16:24:02.458Z,32.90
2018-07-21T16:26:30.533Z,32.89
2018-07-21T16:28:58.666Z,32.85
2018-07-21T16:31:26.535Z,32.86
2018-07-21T16:33:54.439Z,32.79
2018-07-21T16:36:22.548Z,32.73
2018-07-21T16:38:50.527Z,32.69
2018-07-21T16:41:18.449Z,32.67
2018-07-21T16:43:46.982Z,32.62
2018-07-21T16:46:15.033Z,32.60
2018-07-21T16:48:43.042Z,32.60
2018-07-21T16:52:40.731Z,32.55
2018-07-21T16:55:08.645Z,32.38
2018-07-21T16:57:36.456Z,32.37
2018-07-21T17:00:04.498Z,32.38
2018-07-21T17:02:32.468Z,32.33
2018-07-21T17:05:00.517Z,32.26
2018-07-21T17:07:28.567Z,32.21
2018-07-21T17:09:56.456Z,32.19
2018-07-21T17:12:24.334Z,32.17
2018-07-21T17:14:52.517Z,32.10
2018-07-21T17:17:20.388Z,32.10
2018-07-21T17:19:48.295Z,32.05
2018-07-21T17:22:16.214Z,32.02
2018-07-21T17:24:44.274Z,31.95
2018-07-21T17:27:12.276Z,31.91
2018-07-21T17:29:40.346Z,31.84
2018-07-21T17:32:08.141Z,31.76
2018-07-21T17:34:36.047Z,31.61
2018-07-21T17:37:04.187Z,31.51
2018-07-21T17:39:32.255Z,31.40
2018-07-21T17:42:00.103Z,31.28
2018-07-21T17:44:28.097Z,31.20
2018-07-21T17:46:55.932Z,31.09
2018-07-21T17:49:23.878Z,31.01
2018-07-21T17:51:51.759Z,30.91
2018-07-21T17:54:19.663Z,30.69
2018-07-21T17:56:47.709Z,30.55
2018-07-21T17:59:15.947Z,30.38
2018-07-21T18:01:43.741Z,30.21
2018-07-21T18:04:11.752Z,30.10
2018-07-21T18:06:39.850Z,30.02
2018-07-21T18:09:09.022Z,29.85
2018-07-21T18:11:36.936Z,29.78
2018-07-21T18:14:05.340Z,29.68
2018-07-21T18:16:33.176Z,29.59
2018-07-21T18:19:01.185Z,29.38
2018-07-21T18:21:29.260Z,29.34
2018-07-21T18:23:57.589Z,29.21
2018-07-21T18:26:25.635Z,29.09
2018-07-21T18:28:53.718Z,29.06
2018-07-21T18:31:21.760Z,29.02
2018-07-21T18:33:49.687Z,28.93
2018-07-21T18:36:17.620Z,28.86
2018-07-21T18:38:45.482Z,28.80
2018-07-21T18:41:13.256Z,28.69
2018-07-21T18:43:41.523Z,28.63
2018-07-21T18:46:09.546Z,28.55
2018-07-21T18:48:37.667Z,28.51
2018-07-21T18:51:05.666Z,28.44
2018-07-21T18:53:33.674Z,28.39
2018-07-21T18:56:01.454Z,28.22
2018-07-21T18:58:29.638Z,28.06
2018-07-21T19:00:57.445Z,28.00
2018-07-21T19:03:25.366Z,27.90
2018-07-21T19:05:53.394Z,27.93
2018-07-21T19:08:23.224Z,27.92
2018-07-21T19:10:52.684Z,28.01
2018-07-21T19:13:21.217Z,27.96
2018-07-21T19:15:54.624Z,27.88
2018-07-21T19:18:22.591Z,27.90
2018-07-21T19:20:56.030Z,27.93
2018-07-21T19:23:24.052Z,27.93
2018-07-21T19:25:57.651Z,27.86
2018-07-21T19:28:26.198Z,27.86
2018-07-21T19:30:54.439Z,27.84
2018-07-21T19:33:22.489Z,27.80
2018-07-21T19:35:51.018Z,27.79
2018-07-21T19:38:19.026Z,27.79
2018-07-21T19:40:46.985Z,27.79
2018-07-21T19:43:15.635Z,27.76
2018-07-21T19:45:43.565Z,27.74
2018-07-21T19:48:11.506Z,27.68
2018-07-21T19:50:39.710Z,27.68
2018-07-21T19:53:07.575Z,27.66
2018-07-21T19:55:35.572Z,27.62
2018-07-21T19:58:03.979Z,27.56
2018-07-21T20:00:31.899Z,27.49
2018-07-21T20:02:59.886Z,27.42
2018-07-21T20:05:27.800Z,27.33
2018-07-21T20:08:58.562Z,27.26
2018-07-21T20:11:26.543Z,27.09
2018-07-21T20:13:55.710Z,27.07
2018-07-21T20:16:23.733Z,27.01
2018-07-21T20:18:52.722Z,26.89
2018-07-21T20:21:20.700Z,26.84
2018-07-21T20:23:48.778Z,26.78
2018-07-21T20:26:17.310Z,26.70
2018-07-21T20:28:45.264Z,26.66
2018-07-21T20:31:13.083Z,26.69
2018-07-21T20:33:41.181Z,26.64
2018-07-21T20:36:09.116Z,26.61
2018-07-21T20:38:37.353Z,26.61
2018-07-21T20:41:05.651Z,26.65
2018-07-21T20:44:36.546Z,26.61
2018-07-21T20:47:04.598Z,26.43
2018-07-21T20:49:32.732Z,26.36
2018-07-21T20:52:00.575Z,26.23
2018-07-21T20:54:29.027Z,26.18
2018-07-21T20:56:57.061Z,26.13
2018-07-21T20:59:25.105Z,26.04
2018-07-21T21:01:53.238Z,26.04
2018-07-21T21:04:21.112Z,26.00
2018-07-21T21:07:52.893Z,25.93
2018-07-21T21:10:20.967Z,25.94
2018-07-21T21:12:48.868Z,25.97
2018-07-21T21:15:16.929Z,25.86
2018-07-21T21:17:44.772Z,25.83
2018-07-21T21:20:12.663Z,25.74
2018-07-21T21:22:40.588Z,25.64
2018-07-21T21:25:08.777Z,25.71
2018-07-21T21:27:36.745Z,25.62
2018-07-21T21:30:05.325Z,25.65
2018-07-21T21:32:33.248Z,25.63
2018-07-21T21:35:01.215Z,25.60
2018-07-21T21:37:29.506Z,25.58
2018-07-21T21:39:57.456Z,25.50
2018-07-21T21:42:25.390Z,25.41
2018-07-21T21:44:53.490Z,25.33
2018-07-21T21:47:21.394Z,25.24
2018-07-21T21:49:49.324Z,25.18
2018-07-21T21:52:17.140Z,25.14
2018-07-21T21:54:45.058Z,25.11
2018-07-21T21:57:12.882Z,25.06
2018-07-21T21:59:41.073Z,24.97
2018-07-21T22:02:08.975Z,24.91
2018-07-21T22:04:36.973Z,24.90
2018-07-21T22:07:05.201Z,24.87
2018-07-21T22:09:33.186Z,24.81
2018-07-21T22:12:01.239Z,24.83
2018-07-21T22:14:29.272Z,24.74
2018-07-21T22:16:57.310Z,24.66
2018-07-21T22:19:25.307Z,24.61
2018-07-21T22:21:53.277Z,24.60
2018-07-21T22:24:21.355Z,24.59
2018-07-21T22:26:49.421Z,24.57
2018-07-21T22:29:17.927Z,24.63
2018-07-21T22:31:45.914Z,24.47
2018-07-21T22:34:13.867Z,24.50
2018-07-21T22:36:42.304Z,24.45
2018-07-21T22:39:11.496Z,24.44
2018-07-21T22:41:39.517Z,24.38
2018-07-21T22:44:07.558Z,24.34
2018-07-21T22:46:35.726Z,24.28
2018-07-21T22:49:03.631Z,24.28
2018-07-21T22:51:31.824Z,24.21
2018-07-21T22:53:59.736Z,24.13
2018-07-21T22:56:27.720Z,24.17
2018-07-21T22:58:55.735Z,24.13
2018-07-21T23:01:23.699Z,24.13
2018-07-21T23:03:51.536Z,24.07
2018-07-21T23:06:19.438Z,24.05
2018-07-21T23:08:47.388Z,23.99
2018-07-21T23:11:16.346Z,23.90
2018-07-21T23:13:44.551Z,23.98
2018-07-21T23:16:12.610Z,24.03
2018-07-21T23:18:40.704Z,23.97
2018-07-21T23:21:08.916Z,23.94
2018-07-21T23:23:37.047Z,23.95
2018-07-21T23:26:05.045Z,23.97
2018-07-21T23:28:33.239Z,23.97
2018-07-21T23:31:01.124Z,23.95
2018-07-21T23:33:28.896Z,23.92
2018-07-21T23:35:56.955Z,23.88
2018-07-21T23:38:24.988Z,23.76
2018-07-21T23:40:52.995Z,23.73
2018-07-21T23:43:21.055Z,23.73
2018-07-21T23:45:48.952Z,23.66
2018-07-21T23:48:16.964Z,23.61
2018-07-21T23:50:45.074Z,23.59
2018-07-21T23:53:12.870Z,23.61
2018-07-21T23:55:40.881Z,23.59
2018-07-21T23:58:09.050Z,23.63
